sensor_id;sensor_type;location;lat;lon;timestamp;temperature;humidity
10885;DHT22;5495;53.252;10.390;2023-02-28T00:04:51;0.30;99.90
10885;DHT22;5495;53.252;10.390;2023-02-28T00:07:44;0.40;99.90
10885;DHT22;5495;53.252;10.390;2023-02-28T00:10:59;0.30;99.90
10885;DHT22;5495;53.252;10.390;2023-02-28T00:13:40;0.20;99.90
10885;DHT22;5495;53.252;10.390;2023-02-28T00:16:21;0.30;99.90
10885;DHT22;5495;53.252;10.390;2023-02-28T00:18:57;0.30;99.90
10885;DHT22;5495;53.252;10.390;2023-02-28T00:21:39;0.10;99.90
10885;DHT22;5495;53.252;10.390;2023-02-28T00:24:33;0.20;99.90
10885;DHT22;5495;53.252;10.390;2023-02-28T00:27:18;0.20;99.90
10885;DHT22;5495;53.252;10.390;2023-02-28T06:50:19;-1.70;99.90
10885;DHT22;5495;53.252;10.390;2023-02-28T06:53:44;-1.90;99.90
10885;DHT22;5495;53.252;10.390;2023-02-28T07:19:35;-0.80;99.90
10885;DHT22;5495;53.252;10.390;2023-02-28T07:22:42;-1.30;99.90
10885;DHT22;5495;53.252;10.390;2023-02-28T07:25:24;-0.50;99.90
10885;DHT22;5495;53.252;10.390;2023-02-28T07:27:59;-1.20;99.90
10885;DHT22;5495;53.252;10.390;2023-02-28T07:30:34;-1.10;99.90
10885;DHT22;5495;53.252;10.390;2023-02-28T07:33:07;-1.00;99.90
10885;DHT22;5495;53.252;10.390;2023-02-28T07:35:46;-0.90;99.90
10885;DHT22;5495;53.252;10.390;2023-02-28T07:38:27;-1.70;99.90
10885;DHT22;5495;53.252;10.390;2023-02-28T07:43:52;-0.10;99.90
10885;DHT22;5495;53.252;10.390;2023-02-28T07:46:34;-2.60;99.90
10885;DHT22;5495;53.252;10.390;2023-02-28T07:49:07;-0.60;99.90
10885;DHT22;5495;53.252;10.390;2023-02-28T07:51:38;-0.20;99.90
10885;DHT22;5495;53.252;10.390;2023-02-28T07:54:17;-0.40;99.90
10885;DHT22;5495;53.252;10.390;2023-02-28T07:56:44;-0.30;99.90
10885;DHT22;5495;53.252;10.390;2023-02-28T07:59:43;-0.20;99.90
10885;DHT22;5495;53.252;10.390;2023-02-28T08:05:59;2.00;99.90
10885;DHT22;5495;53.252;10.390;2023-02-28T08:08:44;0.70;99.90
10885;DHT22;5495;53.252;10.390;2023-02-28T08:11:42;0.30;99.90
10885;DHT22;5495;53.252;10.390;2023-02-28T08:14:30;0.50;99.90
10885;DHT22;5495;53.252;10.390;2023-02-28T08:17:20;2.50;99.90
10885;DHT22;5495;53.252;10.390;2023-02-28T08:19:49;0.60;99.90
10885;DHT22;5495;53.252;10.390;2023-02-28T08:22:26;1.80;99.90
10885;DHT22;5495;53.252;10.390;2023-02-28T08:25:01;0.60;99.90
10885;DHT22;5495;53.252;10.390;2023-02-28T08:27:36;0.90;99.90
10885;DHT22;5495;53.252;10.390;2023-02-28T08:30:14;0.90;99.90
10885;DHT22;5495;53.252;10.390;2023-02-28T08:32:45;1.60;99.90
10885;DHT22;5495;53.252;10.390;2023-02-28T08:35:24;0.30;99.90
10885;DHT22;5495;53.252;10.390;2023-02-28T08:38:07;1.20;99.90
10885;DHT22;5495;53.252;10.390;2023-02-28T08:40:40;1.80;99.90
10885;DHT22;5495;53.252;10.390;2023-02-28T08:43:15;1.30;99.90
10885;DHT22;5495;53.252;10.390;2023-02-28T08:45:43;1.80;99.90
10885;DHT22;5495;53.252;10.390;2023-02-28T08:48:20;1.80;99.90
10885;DHT22;5495;53.252;10.390;2023-02-28T08:51:06;1.70;99.90
10885;DHT22;5495;53.252;10.390;2023-02-28T08:53:42;1.80;99.90
10885;DHT22;5495;53.252;10.390;2023-02-28T08:56:16;2.00;99.90
10885;DHT22;5495;53.252;10.390;2023-02-28T08:58:48;2.20;99.90
10885;DHT22;5495;53.252;10.390;2023-02-28T09:01:25;2.30;99.90
10885;DHT22;5495;53.252;10.390;2023-02-28T09:07:35;4.40;99.90
10885;DHT22;5495;53.252;10.390;2023-02-28T09:10:25;5.60;99.90
10885;DHT22;5495;53.252;10.390;2023-02-28T09:12:59;2.90;99.90
10885;DHT22;5495;53.252;10.390;2023-02-28T09:15:40;3.30;99.90
10885;DHT22;5495;53.252;10.390;2023-02-28T09:18:12;3.10;99.90
10885;DHT22;5495;53.252;10.390;2023-02-28T09:20:44;3.50;99.90
10885;DHT22;5495;53.252;10.390;2023-02-28T09:23:24;3.70;99.90
10885;DHT22;5495;53.252;10.390;2023-02-28T09:25:55;3.60;99.90
10885;DHT22;5495;53.252;10.390;2023-02-28T09:28:25;3.60;99.90
10885;DHT22;5495;53.252;10.390;2023-02-28T09:30:57;3.70;99.90
10885;DHT22;5495;53.252;10.390;2023-02-28T09:33:26;3.90;99.90
10885;DHT22;5495;53.252;10.390;2023-02-28T09:35:58;4.00;99.90
10885;DHT22;5495;53.252;10.390;2023-02-28T09:38:43;3.90;99.90
10885;DHT22;5495;53.252;10.390;2023-02-28T09:41:15;4.20;99.90
10885;DHT22;5495;53.252;10.390;2023-02-28T09:43:50;4.20;99.90
10885;DHT22;5495;53.252;10.390;2023-02-28T09:46:32;4.40;99.90
10885;DHT22;5495;53.252;10.390;2023-02-28T09:49:04;4.50;99.90
10885;DHT22;5495;53.252;10.390;2023-02-28T09:51:43;4.60;99.90
10885;DHT22;5495;53.252;10.390;2023-02-28T09:54:18;4.70;99.90
10885;DHT22;5495;53.252;10.390;2023-02-28T09:56:49;4.90;99.90
10885;DHT22;5495;53.252;10.390;2023-02-28T09:59:34;4.90;99.90
10885;DHT22;5495;53.252;10.390;2023-02-28T10:02:12;4.90;99.90
10885;DHT22;5495;53.252;10.390;2023-02-28T10:04:47;5.00;99.90
10885;DHT22;5495;53.252;10.390;2023-02-28T10:07:40;5.10;99.90
10885;DHT22;5495;53.252;10.390;2023-02-28T10:10:22;5.20;99.90
10885;DHT22;5495;53.252;10.390;2023-02-28T10:12:53;5.30;99.90
10885;DHT22;5495;53.252;10.390;2023-02-28T10:15:24;5.40;99.90
10885;DHT22;5495;53.252;10.390;2023-02-28T10:17:56;5.40;99.90
10885;DHT22;5495;53.252;10.390;2023-02-28T10:20:27;5.50;99.90
10885;DHT22;5495;53.252;10.390;2023-02-28T10:23:05;5.60;99.90
10885;DHT22;5495;53.252;10.390;2023-02-28T10:26:15;5.70;99.90
10885;DHT22;5495;53.252;10.390;2023-02-28T10:32:56;5.00;99.90
10885;DHT22;5495;53.252;10.390;2023-02-28T10:42:22;6.20;99.40
10885;DHT22;5495;53.252;10.390;2023-02-28T10:45:10;6.30;99.80
10885;DHT22;5495;53.252;10.390;2023-02-28T10:51:11;6.50;99.40
10885;DHT22;5495;53.252;10.390;2023-02-28T10:54:31;6.70;98.90
10885;DHT22;5495;53.252;10.390;2023-02-28T10:57:30;7.60;97.30
10885;DHT22;5495;53.252;10.390;2023-02-28T11:00:13;7.50;97.20
10885;DHT22;5495;53.252;10.390;2023-02-28T11:02:48;7.60;97.20
10885;DHT22;5495;53.252;10.390;2023-02-28T11:05:27;7.70;96.10
10885;DHT22;5495;53.252;10.390;2023-02-28T11:11:26;8.90;95.80
10885;DHT22;5495;53.252;10.390;2023-02-28T11:17:19;11.30;92.40
10885;DHT22;5495;53.252;10.390;2023-02-28T11:19:55;17.70;81.50
10885;DHT22;5495;53.252;10.390;2023-02-28T11:22:28;18.50;65.60
10885;DHT22;5495;53.252;10.390;2023-02-28T11:24:59;22.80;58.80
10885;DHT22;5495;53.252;10.390;2023-02-28T11:27:45;22.60;52.90
10885;DHT22;5495;53.252;10.390;2023-02-28T11:30:39;25.00;47.30
10885;DHT22;5495;53.252;10.390;2023-02-28T11:33:29;26.00;45.40
10885;DHT22;5495;53.252;10.390;2023-02-28T11:36:08;24.60;45.20
10885;DHT22;5495;53.252;10.390;2023-02-28T11:38:49;21.00;47.60
10885;DHT22;5495;53.252;10.390;2023-02-28T11:41:33;18.00;51.60
10885;DHT22;5495;53.252;10.390;2023-02-28T11:44:17;15.40;53.40
10885;DHT22;5495;53.252;10.390;2023-02-28T11:46:50;14.20;55.50
10885;DHT22;5495;53.252;10.390;2023-02-28T11:49:32;13.70;56.80
10885;DHT22;5495;53.252;10.390;2023-02-28T11:52:10;13.20;54.70
10885;DHT22;5495;53.252;10.390;2023-02-28T11:55:20;14.50;53.30
10885;DHT22;5495;53.252;10.390;2023-02-28T12:01:12;24.10;49.80
10885;DHT22;5495;53.252;10.390;2023-02-28T12:04:04;27.20;41.90
10885;DHT22;5495;53.252;10.390;2023-02-28T12:10:20;27.20;38.50
10885;DHT22;5495;53.252;10.390;2023-02-28T12:13:09;21.10;40.60
10885;DHT22;5495;53.252;10.390;2023-02-28T12:16:09;17.60;44.70
10885;DHT22;5495;53.252;10.390;2023-02-28T12:19:25;14.50;45.40
10885;DHT22;5495;53.252;10.390;2023-02-28T12:22:35;13.10;49.70
10885;DHT22;5495;53.252;10.390;2023-02-28T12:28:32;11.10;53.50
10885;DHT22;5495;53.252;10.390;2023-02-28T12:31:35;12.30;55.20
10885;DHT22;5495;53.252;10.390;2023-02-28T12:34:10;14.20;55.80
10885;DHT22;5495;53.252;10.390;2023-02-28T12:37:36;11.10;54.80
10885;DHT22;5495;53.252;10.390;2023-02-28T12:40:25;12.30;59.30
10885;DHT22;5495;53.252;10.390;2023-02-28T12:43:09;11.40;57.70
10885;DHT22;5495;53.252;10.390;2023-02-28T12:45:56;10.90;58.40
10885;DHT22;5495;53.252;10.390;2023-02-28T12:48:46;10.40;56.10
10885;DHT22;5495;53.252;10.390;2023-02-28T12:51:35;11.90;61.30
10885;DHT22;5495;53.252;10.390;2023-02-28T12:54:25;10.40;58.30
10885;DHT22;5495;53.252;10.390;2023-02-28T12:57:15;9.80;59.60
10885;DHT22;5495;53.252;10.390;2023-02-28T12:59:51;9.70;58.50
10885;DHT22;5495;53.252;10.390;2023-02-28T13:12:25;9.50;62.60
10885;DHT22;5495;53.252;10.390;2023-02-28T13:15:04;9.30;62.20
10885;DHT22;5495;53.252;10.390;2023-02-28T13:17:53;8.80;63.10
10885;DHT22;5495;53.252;10.390;2023-02-28T13:20:33;6.30;62.30
10885;DHT22;5495;53.252;10.390;2023-02-28T13:26:14;8.30;63.20
10885;DHT22;5495;53.252;10.390;2023-02-28T13:29:21;8.40;68.00
10885;DHT22;5495;53.252;10.390;2023-02-28T13:32:19;8.00;65.20
10885;DHT22;5495;53.252;10.390;2023-02-28T13:35:16;7.80;62.90
10885;DHT22;5495;53.252;10.390;2023-02-28T13:38:36;7.70;65.90
10885;DHT22;5495;53.252;10.390;2023-02-28T13:41:40;7.60;66.20
10885;DHT22;5495;53.252;10.390;2023-02-28T13:44:16;7.50;66.50
10885;DHT22;5495;53.252;10.390;2023-02-28T13:47:23;7.30;66.60
10885;DHT22;5495;53.252;10.390;2023-02-28T13:49:55;7.20;66.30
10885;DHT22;5495;53.252;10.390;2023-02-28T13:55:44;7.00;68.40
10885;DHT22;5495;53.252;10.390;2023-02-28T13:58:33;7.00;69.60
10885;DHT22;5495;53.252;10.390;2023-02-28T14:01:16;6.90;69.50
10885;DHT22;5495;53.252;10.390;2023-02-28T14:04:17;6.80;69.30
10885;DHT22;5495;53.252;10.390;2023-02-28T14:06:49;6.80;70.30
10885;DHT22;5495;53.252;10.390;2023-02-28T14:09:33;6.70;69.70
10885;DHT22;5495;53.252;10.390;2023-02-28T14:15:03;6.60;69.80
10885;DHT22;5495;53.252;10.390;2023-02-28T14:17:32;6.60;69.30
10885;DHT22;5495;53.252;10.390;2023-02-28T14:20:00;6.50;69.60
10885;DHT22;5495;53.252;10.390;2023-02-28T14:22:46;6.40;69.80
10885;DHT22;5495;53.252;10.390;2023-02-28T14:25:22;6.30;69.40
10885;DHT22;5495;53.252;10.390;2023-02-28T14:28:02;6.30;70.20
10885;DHT22;5495;53.252;10.390;2023-02-28T14:31:01;6.20;72.00
10885;DHT22;5495;53.252;10.390;2023-02-28T14:33:46;6.20;71.30
10885;DHT22;5495;53.252;10.390;2023-02-28T14:36:20;5.70;71.20
10885;DHT22;5495;53.252;10.390;2023-02-28T14:38:55;6.20;71.00
10885;DHT22;5495;53.252;10.390;2023-02-28T14:41:32;6.10;70.80
10885;DHT22;5495;53.252;10.390;2023-02-28T14:44:15;6.20;71.40
10885;DHT22;5495;53.252;10.390;2023-02-28T14:46:43;6.20;73.30
10885;DHT22;5495;53.252;10.390;2023-02-28T14:49:18;6.20;73.40
10885;DHT22;5495;53.252;10.390;2023-02-28T14:51:50;6.20;73.00
10885;DHT22;5495;53.252;10.390;2023-02-28T14:54:29;6.20;73.50
10885;DHT22;5495;53.252;10.390;2023-02-28T14:56:58;6.20;74.00
10885;DHT22;5495;53.252;10.390;2023-02-28T14:59:28;6.10;73.70
10885;DHT22;5495;53.252;10.390;2023-02-28T15:02:16;6.10;73.40
10885;DHT22;5495;53.252;10.390;2023-02-28T15:04:56;6.10;73.60
10885;DHT22;5495;53.252;10.390;2023-02-28T15:07:42;6.10;74.00
10885;DHT22;5495;53.252;10.390;2023-02-28T15:10:16;6.00;74.50
10885;DHT22;5495;53.252;10.390;2023-02-28T15:12:53;6.00;73.90
10885;DHT22;5495;53.252;10.390;2023-02-28T15:15:27;6.00;73.80
10885;DHT22;5495;53.252;10.390;2023-02-28T15:17:58;6.00;73.60
10885;DHT22;5495;53.252;10.390;2023-02-28T15:20:26;6.00;75.10
10885;DHT22;5495;53.252;10.390;2023-02-28T15:22:57;6.00;74.90
10885;DHT22;5495;53.252;10.390;2023-02-28T15:25:25;6.00;75.80
10885;DHT22;5495;53.252;10.390;2023-02-28T15:27:56;5.90;74.80
10885;DHT22;5495;53.252;10.390;2023-02-28T15:30:26;5.90;74.10
10885;DHT22;5495;53.252;10.390;2023-02-28T15:33:21;5.90;73.20
10885;DHT22;5495;53.252;10.390;2023-02-28T15:35:49;5.90;74.30
10885;DHT22;5495;53.252;10.390;2023-02-28T15:38:26;5.80;71.90
10885;DHT22;5495;53.252;10.390;2023-02-28T15:40:59;5.90;75.60
10885;DHT22;5495;53.252;10.390;2023-02-28T15:43:32;5.90;73.50
10885;DHT22;5495;53.252;10.390;2023-02-28T15:46:02;4.00;72.20
10885;DHT22;5495;53.252;10.390;2023-02-28T15:48:32;5.80;73.00
10885;DHT22;5495;53.252;10.390;2023-02-28T15:51:14;5.70;72.30
10885;DHT22;5495;53.252;10.390;2023-02-28T15:54:01;6.30;73.40
10885;DHT22;5495;53.252;10.390;2023-02-28T15:56:40;5.30;73.50
10885;DHT22;5495;53.252;10.390;2023-02-28T15:59:31;3.90;72.50
10885;DHT22;5495;53.252;10.390;2023-02-28T16:02:15;5.50;74.70
10885;DHT22;5495;53.252;10.390;2023-02-28T16:05:21;5.70;75.50
10885;DHT22;5495;53.252;10.390;2023-02-28T16:07:55;5.50;74.70
10885;DHT22;5495;53.252;10.390;2023-02-28T16:10:28;5.40;74.90
10885;DHT22;5495;53.252;10.390;2023-02-28T16:13:04;5.00;74.80
10885;DHT22;5495;53.252;10.390;2023-02-28T16:15:37;5.40;75.80
10885;DHT22;5495;53.252;10.390;2023-02-28T16:18:24;5.30;74.90
10885;DHT22;5495;53.252;10.390;2023-02-28T16:20:51;5.20;75.00
10885;DHT22;5495;53.252;10.390;2023-02-28T16:23:19;5.30;75.40
10885;DHT22;5495;53.252;10.390;2023-02-28T16:26:06;5.20;77.30
10885;DHT22;5495;53.252;10.390;2023-02-28T16:28:37;5.20;77.70
10885;DHT22;5495;53.252;10.390;2023-02-28T16:31:07;5.10;78.50
10885;DHT22;5495;53.252;10.390;2023-02-28T16:33:45;5.00;79.50
10885;DHT22;5495;53.252;10.390;2023-02-28T16:36:19;5.00;80.50
10885;DHT22;5495;53.252;10.390;2023-02-28T16:38:48;4.90;82.60
10885;DHT22;5495;53.252;10.390;2023-02-28T16:41:19;4.80;83.60
10885;DHT22;5495;53.252;10.390;2023-02-28T16:43:56;4.80;82.60
10885;DHT22;5495;53.252;10.390;2023-02-28T16:46:36;4.10;82.50
10885;DHT22;5495;53.252;10.390;2023-02-28T16:49:03;4.60;84.60
10885;DHT22;5495;53.252;10.390;2023-02-28T16:51:37;4.60;83.30
10885;DHT22;5495;53.252;10.390;2023-02-28T16:54:08;4.50;83.80
10885;DHT22;5495;53.252;10.390;2023-02-28T16:56:43;4.30;86.20
10885;DHT22;5495;53.252;10.390;2023-02-28T16:59:14;4.20;86.50
10885;DHT22;5495;53.252;10.390;2023-02-28T17:17:58;3.70;88.60
10885;DHT22;5495;53.252;10.390;2023-02-28T17:20:26;4.10;88.50
10885;DHT22;5495;53.252;10.390;2023-02-28T17:23:12;3.80;88.10
10885;DHT22;5495;53.252;10.390;2023-02-28T17:25:44;4.40;88.70
10885;DHT22;5495;53.252;10.390;2023-02-28T17:34:40;3.80;89.10
10885;DHT22;5495;53.252;10.390;2023-02-28T17:37:41;1.30;85.80
10885;DHT22;5495;53.252;10.390;2023-02-28T17:40:35;2.70;88.00
10885;DHT22;5495;53.252;10.390;2023-02-28T17:43:16;3.70;89.60
10885;DHT22;5495;53.252;10.390;2023-02-28T17:46:15;3.00;90.00
10885;DHT22;5495;53.252;10.390;2023-02-28T17:49:23;3.70;90.30
10885;DHT22;5495;53.252;10.390;2023-02-28T17:52:43;2.80;89.20
10885;DHT22;5495;53.252;10.390;2023-02-28T18:05:24;3.20;90.70
10885;DHT22;5495;53.252;10.390;2023-02-28T18:14:04;2.30;91.40
10885;DHT22;5495;53.252;10.390;2023-02-28T18:17:12;2.40;93.40
10885;DHT22;5495;53.252;10.390;2023-02-28T18:19:58;2.20;91.90
10885;DHT22;5495;53.252;10.390;2023-02-28T18:23:03;2.00;93.10
10885;DHT22;5495;53.252;10.390;2023-02-28T18:26:18;3.00;93.40
10885;DHT22;5495;53.252;10.390;2023-02-28T18:29:35;3.30;93.10
10885;DHT22;5495;53.252;10.390;2023-02-28T18:35:53;2.30;92.50
10885;DHT22;5495;53.252;10.390;2023-02-28T18:38:44;0.60;91.80
10885;DHT22;5495;53.252;10.390;2023-02-28T18:44:54;2.20;93.30
10885;DHT22;5495;53.252;10.390;2023-02-28T18:48:09;2.80;93.60
10885;DHT22;5495;53.252;10.390;2023-02-28T18:51:49;1.70;93.80
10885;DHT22;5495;53.252;10.390;2023-02-28T18:57:51;1.50;94.80
10885;DHT22;5495;53.252;10.390;2023-02-28T20:15:13;1.00;99.90
10885;DHT22;5495;53.252;10.390;2023-02-28T20:18:52;0.00;99.90
